sensor_id;sensor_type;location;lat;lon;timestamp;temperature;humidity
37310;DHT22;23195;47.744;7.358;2023-04-23T06:02:10;13.20;99.90
37310;DHT22;23195;47.744;7.358;2023-04-23T06:04:39;13.30;99.90
37310;DHT22;23195;47.744;7.358;2023-04-23T06:07:05;13.40;99.90
37310;DHT22;23195;47.744;7.358;2023-04-23T06:09:33;13.50;99.90
37310;DHT22;23195;47.744;7.358;2023-04-23T06:12:02;13.60;99.90
37310;DHT22;23195;47.744;7.358;2023-04-23T06:14:28;13.50;99.90
37310;DHT22;23195;47.744;7.358;2023-04-23T06:17:03;13.60;99.90
37310;DHT22;23195;47.744;7.358;2023-04-23T06:19:32;13.80;99.90
37310;DHT22;23195;47.744;7.358;2023-04-23T06:21:57;13.80;99.90
37310;DHT22;23195;47.744;7.358;2023-04-23T06:24:24;13.90;99.90
37310;DHT22;23195;47.744;7.358;2023-04-23T06:26:49;13.90;99.90
37310;DHT22;23195;47.744;7.358;2023-04-23T06:29:15;14.00;99.90
37310;DHT22;23195;47.744;7.358;2023-04-23T06:31:41;13.90;99.90
37310;DHT22;23195;47.744;7.358;2023-04-23T06:34:07;14.30;99.90
37310;DHT22;23195;47.744;7.358;2023-04-23T06:36:36;14.40;99.90
37310;DHT22;23195;47.744;7.358;2023-04-23T06:39:20;14.50;99.90
37310;DHT22;23195;47.744;7.358;2023-04-23T06:41:51;14.60;99.90
37310;DHT22;23195;47.744;7.358;2023-04-23T06:44:17;14.60;99.90
37310;DHT22;23195;47.744;7.358;2023-04-23T06:46:42;14.70;99.90
37310;DHT22;23195;47.744;7.358;2023-04-23T06:49:08;14.80;99.90
37310;DHT22;23195;47.744;7.358;2023-04-23T06:51:34;15.00;99.90
37310;DHT22;23195;47.744;7.358;2023-04-23T06:54:00;15.60;99.90
37310;DHT22;23195;47.744;7.358;2023-04-23T06:56:33;16.70;99.90
37310;DHT22;23195;47.744;7.358;2023-04-23T06:59:01;17.90;99.90
37310;DHT22;23195;47.744;7.358;2023-04-23T07:01:27;19.00;99.90
37310;DHT22;23195;47.744;7.358;2023-04-23T07:03:56;20.00;99.90
37310;DHT22;23195;47.744;7.358;2023-04-23T07:06:22;20.90;99.90
37310;DHT22;23195;47.744;7.358;2023-04-23T07:08:51;21.10;99.90
37310;DHT22;23195;47.744;7.358;2023-04-23T07:11:16;21.80;99.90
37310;DHT22;23195;47.744;7.358;2023-04-23T07:13:50;22.60;99.90
37310;DHT22;23195;47.744;7.358;2023-04-23T07:16:16;23.20;99.90
37310;DHT22;23195;47.744;7.358;2023-04-23T07:18:42;23.50;98.00
37310;DHT22;23195;47.744;7.358;2023-04-23T07:21:08;22.10;98.00
37310;DHT22;23195;47.744;7.358;2023-04-23T07:23:36;21.50;97.90
37310;DHT22;23195;47.744;7.358;2023-04-23T07:26:02;20.70;99.80
37310;DHT22;23195;47.744;7.358;2023-04-23T07:28:28;20.60;99.90
37310;DHT22;23195;47.744;7.358;2023-04-23T07:30:54;21.20;99.90
37310;DHT22;23195;47.744;7.358;2023-04-23T07:33:20;21.10;99.90
37310;DHT22;23195;47.744;7.358;2023-04-23T07:35:46;20.80;99.90
37310;DHT22;23195;47.744;7.358;2023-04-23T07:38:12;21.00;99.90
37310;DHT22;23195;47.744;7.358;2023-04-23T07:40:40;21.30;99.90
37310;DHT22;23195;47.744;7.358;2023-04-23T07:43:06;21.30;99.90
37310;DHT22;23195;47.744;7.358;2023-04-23T07:45:32;21.40;99.90
37310;DHT22;23195;47.744;7.358;2023-04-23T07:47:58;20.90;99.90
37310;DHT22;23195;47.744;7.358;2023-04-23T07:50:24;20.30;99.90
37310;DHT22;23195;47.744;7.358;2023-04-23T07:52:50;20.40;99.90
37310;DHT22;23195;47.744;7.358;2023-04-23T07:55:16;20.90;99.90
37310;DHT22;23195;47.744;7.358;2023-04-23T07:57:42;21.70;98.90
37310;DHT22;23195;47.744;7.358;2023-04-23T08:00:08;21.80;99.70
37310;DHT22;23195;47.744;7.358;2023-04-23T08:02:34;22.20;98.90
37310;DHT22;23195;47.744;7.358;2023-04-23T08:05:00;22.80;97.40
37310;DHT22;23195;47.744;7.358;2023-04-23T08:07:26;22.80;97.00
37310;DHT22;23195;47.744;7.358;2023-04-23T08:09:51;22.50;96.60
37310;DHT22;23195;47.744;7.358;2023-04-23T08:12:20;22.20;96.60
37310;DHT22;23195;47.744;7.358;2023-04-23T08:14:46;22.80;96.50
37310;DHT22;23195;47.744;7.358;2023-04-23T08:17:14;23.10;95.40
37310;DHT22;23195;47.744;7.358;2023-04-23T08:19:45;23.60;95.30
37310;DHT22;23195;47.744;7.358;2023-04-23T08:22:11;23.30;94.10
37310;DHT22;23195;47.744;7.358;2023-04-23T08:24:41;23.60;94.00
37310;DHT22;23195;47.744;7.358;2023-04-23T08:27:07;23.50;93.40
37310;DHT22;23195;47.744;7.358;2023-04-23T08:29:33;23.80;93.00
37310;DHT22;23195;47.744;7.358;2023-04-23T08:31:59;23.80;92.60
37310;DHT22;23195;47.744;7.358;2023-04-23T08:34:25;23.30;93.40
37310;DHT22;23195;47.744;7.358;2023-04-23T08:36:51;22.30;95.10
37310;DHT22;23195;47.744;7.358;2023-04-23T08:39:20;21.40;96.40
37310;DHT22;23195;47.744;7.358;2023-04-23T08:41:51;21.10;97.30
37310;DHT22;23195;47.744;7.358;2023-04-23T08:44:20;20.50;97.00
37310;DHT22;23195;47.744;7.358;2023-04-23T08:46:49;20.00;98.60
37310;DHT22;23195;47.744;7.358;2023-04-23T08:49:17;20.00;98.90
37310;DHT22;23195;47.744;7.358;2023-04-23T08:51:53;18.70;99.90
37310;DHT22;23195;47.744;7.358;2023-04-23T08:54:27;19.50;99.90
37310;DHT22;23195;47.744;7.358;2023-04-23T08:56:58;19.00;99.90
37310;DHT22;23195;47.744;7.358;2023-04-23T08:59:28;19.00;99.90
37310;DHT22;23195;47.744;7.358;2023-04-23T09:01:54;19.20;99.90
37310;DHT22;23195;47.744;7.358;2023-04-23T09:04:22;19.20;99.90
37310;DHT22;23195;47.744;7.358;2023-04-23T09:06:54;19.30;99.90
37310;DHT22;23195;47.744;7.358;2023-04-23T09:09:20;19.80;99.90
37310;DHT22;23195;47.744;7.358;2023-04-23T09:11:50;20.30;99.90
37310;DHT22;23195;47.744;7.358;2023-04-23T09:14:16;19.90;99.40
37310;DHT22;23195;47.744;7.358;2023-04-23T09:16:42;19.80;99.60
37310;DHT22;23195;47.744;7.358;2023-04-23T09:19:10;19.60;99.90
37310;DHT22;23195;47.744;7.358;2023-04-23T09:21:40;19.70;99.90
37310;DHT22;23195;47.744;7.358;2023-04-23T09:24:09;19.50;99.80
37310;DHT22;23195;47.744;7.358;2023-04-23T09:26:46;19.20;99.50
37310;DHT22;23195;47.744;7.358;2023-04-23T09:29:22;18.40;99.90
37310;DHT22;23195;47.744;7.358;2023-04-23T09:31:51;18.50;99.90
37310;DHT22;23195;47.744;7.358;2023-04-23T09:34:39;19.00;99.90
37310;DHT22;23195;47.744;7.358;2023-04-23T09:37:05;18.40;99.90
37310;DHT22;23195;47.744;7.358;2023-04-23T09:39:36;18.40;99.90
37310;DHT22;23195;47.744;7.358;2023-04-23T09:42:05;18.70;99.90
37310;DHT22;23195;47.744;7.358;2023-04-23T09:44:32;19.20;99.90
37310;DHT22;23195;47.744;7.358;2023-04-23T09:47:06;19.50;99.70
37310;DHT22;23195;47.744;7.358;2023-04-23T09:49:49;19.70;99.70
37310;DHT22;23195;47.744;7.358;2023-04-23T09:52:15;19.70;99.40
37310;DHT22;23195;47.744;7.358;2023-04-23T09:54:41;19.70;99.90
37310;DHT22;23195;47.744;7.358;2023-04-23T09:57:07;19.90;99.90
37310;DHT22;23195;47.744;7.358;2023-04-23T09:59:36;19.90;99.50
37310;DHT22;23195;47.744;7.358;2023-04-23T10:02:06;19.70;99.30
37310;DHT22;23195;47.744;7.358;2023-04-23T10:04:33;19.90;99.20
37310;DHT22;23195;47.744;7.358;2023-04-23T10:07:03;20.10;99.10
37310;DHT22;23195;47.744;7.358;2023-04-23T10:09:32;20.10;99.10
37310;DHT22;23195;47.744;7.358;2023-04-23T10:12:00;19.70;98.50
37310;DHT22;23195;47.744;7.358;2023-04-23T10:14:29;19.60;98.30
37310;DHT22;23195;47.744;7.358;2023-04-23T10:17:02;19.30;99.30
37310;DHT22;23195;47.744;7.358;2023-04-23T10:19:32;19.50;99.00
37310;DHT22;23195;47.744;7.358;2023-04-23T10:22:03;19.70;98.80
37310;DHT22;23195;47.744;7.358;2023-04-23T10:24:56;20.00;98.80
37310;DHT22;23195;47.744;7.358;2023-04-23T10:27:30;20.30;98.20
37310;DHT22;23195;47.744;7.358;2023-04-23T10:30:04;20.20;97.80
37310;DHT22;23195;47.744;7.358;2023-04-23T10:32:30;20.20;97.50
37310;DHT22;23195;47.744;7.358;2023-04-23T10:34:57;20.10;98.40
37310;DHT22;23195;47.744;7.358;2023-04-23T10:37:24;19.90;97.70
37310;DHT22;23195;47.744;7.358;2023-04-23T10:39:54;18.60;98.50
37310;DHT22;23195;47.744;7.358;2023-04-23T10:42:24;19.40;99.10
37310;DHT22;23195;47.744;7.358;2023-04-23T10:44:55;19.40;98.80
37310;DHT22;23195;47.744;7.358;2023-04-23T10:47:22;19.50;98.90
37310;DHT22;23195;47.744;7.358;2023-04-23T10:49:48;19.80;98.70
37310;DHT22;23195;47.744;7.358;2023-04-23T10:52:15;19.70;98.20
37310;DHT22;23195;47.744;7.358;2023-04-23T10:54:56;19.90;98.60
37310;DHT22;23195;47.744;7.358;2023-04-23T10:57:22;19.70;97.40
37310;DHT22;23195;47.744;7.358;2023-04-23T10:59:55;19.60;98.70
37310;DHT22;23195;47.744;7.358;2023-04-23T11:02:23;19.70;98.50
37310;DHT22;23195;47.744;7.358;2023-04-23T11:04:57;19.50;98.10
37310;DHT22;23195;47.744;7.358;2023-04-23T11:07:32;19.40;98.70
37310;DHT22;23195;47.744;7.358;2023-04-23T11:10:12;19.50;98.80
37310;DHT22;23195;47.744;7.358;2023-04-23T11:12:39;19.50;97.50
37310;DHT22;23195;47.744;7.358;2023-04-23T11:15:15;19.70;98.10
37310;DHT22;23195;47.744;7.358;2023-04-23T11:20:13;19.70;98.50
37310;DHT22;23195;47.744;7.358;2023-04-23T11:22:47;19.90;97.70
37310;DHT22;23195;47.744;7.358;2023-04-23T11:25:24;19.90;98.60
37310;DHT22;23195;47.744;7.358;2023-04-23T11:27:54;20.20;98.20
37310;DHT22;23195;47.744;7.358;2023-04-23T11:30:25;20.40;97.50
37310;DHT22;23195;47.744;7.358;2023-04-23T11:32:56;20.50;97.90
37310;DHT22;23195;47.744;7.358;2023-04-23T11:38:30;21.00;96.90
37310;DHT22;23195;47.744;7.358;2023-04-23T11:41:10;21.40;96.90
37310;DHT22;23195;47.744;7.358;2023-04-23T11:44:03;21.30;96.20
37310;DHT22;23195;47.744;7.358;2023-04-23T11:46:29;21.30;96.60
37310;DHT22;23195;47.744;7.358;2023-04-23T11:49:08;21.40;97.60
37310;DHT22;23195;47.744;7.358;2023-04-23T11:51:46;21.70;95.50
37310;DHT22;23195;47.744;7.358;2023-04-23T11:54:44;21.80;95.90
37310;DHT22;23195;47.744;7.358;2023-04-23T11:57:10;22.10;95.50
37310;DHT22;23195;47.744;7.358;2023-04-23T11:59:42;22.40;95.50
37310;DHT22;23195;47.744;7.358;2023-04-23T12:02:23;22.40;94.10
37310;DHT22;23195;47.744;7.358;2023-04-23T12:04:49;22.00;94.80
37310;DHT22;23195;47.744;7.358;2023-04-23T12:07:15;21.80;94.50
37310;DHT22;23195;47.744;7.358;2023-04-23T12:09:44;21.70;94.60
37310;DHT22;23195;47.744;7.358;2023-04-23T12:12:16;21.50;94.90
37310;DHT22;23195;47.744;7.358;2023-04-23T12:14:41;21.60;95.20
37310;DHT22;23195;47.744;7.358;2023-04-23T12:17:09;21.60;94.70
37310;DHT22;23195;47.744;7.358;2023-04-23T12:19:38;21.70;94.80
37310;DHT22;23195;47.744;7.358;2023-04-23T12:22:05;21.90;94.40
37310;DHT22;23195;47.744;7.358;2023-04-23T12:25:03;22.10;94.70
37310;DHT22;23195;47.744;7.358;2023-04-23T12:27:40;22.50;93.30
37310;DHT22;23195;47.744;7.358;2023-04-23T12:30:08;22.60;93.10
37310;DHT22;23195;47.744;7.358;2023-04-23T12:32:37;22.70;92.00
37310;DHT22;23195;47.744;7.358;2023-04-23T12:35:03;22.90;91.70
37310;DHT22;23195;47.744;7.358;2023-04-23T12:37:35;23.00;91.50
37310;DHT22;23195;47.744;7.358;2023-04-23T12:40:05;23.00;91.40
37310;DHT22;23195;47.744;7.358;2023-04-23T12:42:32;23.00;91.10
37310;DHT22;23195;47.744;7.358;2023-04-23T12:45:10;23.20;90.80
37310;DHT22;23195;47.744;7.358;2023-04-23T12:47:36;23.20;89.60
37310;DHT22;23195;47.744;7.358;2023-04-23T12:50:02;23.20;89.40
37310;DHT22;23195;47.744;7.358;2023-04-23T12:52:30;23.20;89.30
37310;DHT22;23195;47.744;7.358;2023-04-23T12:54:56;22.70;89.20
37310;DHT22;23195;47.744;7.358;2023-04-23T12:57:25;22.30;90.60
37310;DHT22;23195;47.744;7.358;2023-04-23T12:59:52;22.40;90.70
37310;DHT22;23195;47.744;7.358;2023-04-23T13:02:19;22.40;91.00
37310;DHT22;23195;47.744;7.358;2023-04-23T13:04:45;22.70;90.80
37310;DHT22;23195;47.744;7.358;2023-04-23T13:07:10;23.00;90.60
37310;DHT22;23195;47.744;7.358;2023-04-23T13:09:36;23.20;89.50
37310;DHT22;23195;47.744;7.358;2023-04-23T13:12:02;23.30;88.90
37310;DHT22;23195;47.744;7.358;2023-04-23T13:14:28;23.30;89.90
37310;DHT22;23195;47.744;7.358;2023-04-23T13:16:56;23.40;87.40
37310;DHT22;23195;47.744;7.358;2023-04-23T13:19:25;23.20;89.60
37310;DHT22;23195;47.744;7.358;2023-04-23T13:21:51;23.10;89.10
37310;DHT22;23195;47.744;7.358;2023-04-23T13:24:16;23.10;88.40
37310;DHT22;23195;47.744;7.358;2023-04-23T13:26:42;23.10;86.40
37310;DHT22;23195;47.744;7.358;2023-04-23T13:29:11;23.10;88.90
37310;DHT22;23195;47.744;7.358;2023-04-23T13:31:36;23.20;88.60
37310;DHT22;23195;47.744;7.358;2023-04-23T13:34:02;23.30;88.70
37310;DHT22;23195;47.744;7.358;2023-04-23T13:36:28;23.50;87.30
37310;DHT22;23195;47.744;7.358;2023-04-23T13:38:54;23.70;88.00
37310;DHT22;23195;47.744;7.358;2023-04-23T13:41:20;23.70;85.90
37310;DHT22;23195;47.744;7.358;2023-04-23T13:43:46;23.50;83.70
37310;DHT22;23195;47.744;7.358;2023-04-23T13:46:11;23.30;82.80
37310;DHT22;23195;47.744;7.358;2023-04-23T13:48:38;23.20;81.00
37310;DHT22;23195;47.744;7.358;2023-04-23T13:51:04;23.10;81.10
37310;DHT22;23195;47.744;7.358;2023-04-23T13:53:30;22.90;78.70
37310;DHT22;23195;47.744;7.358;2023-04-23T13:55:58;22.50;75.00
37310;DHT22;23195;47.744;7.358;2023-04-23T13:58:24;22.30;73.60
37310;DHT22;23195;47.744;7.358;2023-04-23T14:00:51;21.80;73.80
37310;DHT22;23195;47.744;7.358;2023-04-23T14:03:20;21.90;75.10
37310;DHT22;23195;47.744;7.358;2023-04-23T14:05:46;22.10;74.30
37310;DHT22;23195;47.744;7.358;2023-04-23T14:08:12;22.10;72.30
37310;DHT22;23195;47.744;7.358;2023-04-23T14:10:38;22.10;71.40
37310;DHT22;23195;47.744;7.358;2023-04-23T14:13:06;22.00;70.40
37310;DHT22;23195;47.744;7.358;2023-04-23T14:15:32;21.90;68.20
37310;DHT22;23195;47.744;7.358;2023-04-23T14:17:59;21.90;68.70
37310;DHT22;23195;47.744;7.358;2023-04-23T14:20:34;21.80;71.10
37310;DHT22;23195;47.744;7.358;2023-04-23T14:23:36;21.70;71.70
37310;DHT22;23195;47.744;7.358;2023-04-23T14:26:08;21.60;71.70
37310;DHT22;23195;47.744;7.358;2023-04-23T14:28:45;21.50;71.10
37310;DHT22;23195;47.744;7.358;2023-04-23T14:31:14;21.50;71.20
37310;DHT22;23195;47.744;7.358;2023-04-23T14:33:42;21.20;70.70
37310;DHT22;23195;47.744;7.358;2023-04-23T14:36:14;20.90;72.10
37310;DHT22;23195;47.744;7.358;2023-04-23T14:38:41;20.80;73.40
37310;DHT22;23195;47.744;7.358;2023-04-23T14:41:07;20.60;74.60
37310;DHT22;23195;47.744;7.358;2023-04-23T14:43:36;20.60;75.80
37310;DHT22;23195;47.744;7.358;2023-04-23T14:46:07;20.50;77.50
37310;DHT22;23195;47.744;7.358;2023-04-23T14:48:32;20.20;78.90
37310;DHT22;23195;47.744;7.358;2023-04-23T14:50:59;20.10;79.60
37310;DHT22;23195;47.744;7.358;2023-04-23T14:53:25;19.80;80.20
37310;DHT22;23195;47.744;7.358;2023-04-23T14:55:50;19.70;81.00
37310;DHT22;23195;47.744;7.358;2023-04-23T14:58:16;19.70;81.20
37310;DHT22;23195;47.744;7.358;2023-04-23T15:00:42;19.80;81.30
37310;DHT22;23195;47.744;7.358;2023-04-23T15:03:08;19.80;81.50
37310;DHT22;23195;47.744;7.358;2023-04-23T15:05:37;19.70;81.90
37310;DHT22;23195;47.744;7.358;2023-04-23T15:08:04;19.60;82.40
37310;DHT22;23195;47.744;7.358;2023-04-23T15:10:30;19.60;83.40
37310;DHT22;23195;47.744;7.358;2023-04-23T15:13:07;19.50;83.90
37310;DHT22;23195;47.744;7.358;2023-04-23T15:18:15;19.40;84.90
37310;DHT22;23195;47.744;7.358;2023-04-23T15:20:44;19.30;85.80
37310;DHT22;23195;47.744;7.358;2023-04-23T15:23:20;19.30;85.60
37310;DHT22;23195;47.744;7.358;2023-04-23T15:25:49;19.20;85.60
37310;DHT22;23195;47.744;7.358;2023-04-23T15:28:16;19.30;86.30
37310;DHT22;23195;47.744;7.358;2023-04-23T15:30:50;19.20;86.40
37310;DHT22;23195;47.744;7.358;2023-04-23T15:36:53;19.20;86.70
37310;DHT22;23195;47.744;7.358;2023-04-23T15:39:43;19.30;86.90
37310;DHT22;23195;47.744;7.358;2023-04-23T15:42:09;19.30;86.80
37310;DHT22;23195;47.744;7.358;2023-04-23T15:44:35;19.30;86.80
37310;DHT22;23195;47.744;7.358;2023-04-23T15:47:01;19.40;87.10
37310;DHT22;23195;47.744;7.358;2023-04-23T15:49:27;19.30;87.40
37310;DHT22;23195;47.744;7.358;2023-04-23T15:51:53;19.20;87.20
37310;DHT22;23195;47.744;7.358;2023-04-23T15:54:22;19.30;86.90
37310;DHT22;23195;47.744;7.358;2023-04-23T15:56:50;19.20;86.50
37310;DHT22;23195;47.744;7.358;2023-04-23T15:59:16;19.20;87.40
37310;DHT22;23195;47.744;7.358;2023-04-23T16:01:42;19.20;87.60
37310;DHT22;23195;47.744;7.358;2023-04-23T16:04:10;19.10;87.90
37310;DHT22;23195;47.744;7.358;2023-04-23T16:06:36;19.00;87.80
37310;DHT22;23195;47.744;7.358;2023-04-23T16:09:02;19.00;87.90
37310;DHT22;23195;47.744;7.358;2023-04-23T16:11:38;18.90;88.30
37310;DHT22;23195;47.744;7.358;2023-04-23T16:14:06;18.80;88.90
37310;DHT22;23195;47.744;7.358;2023-04-23T16:16:34;18.50;89.20
37310;DHT22;23195;47.744;7.358;2023-04-23T16:18:59;18.70;89.60
37310;DHT22;23195;47.744;7.358;2023-04-23T16:21:30;18.50;90.00
37310;DHT22;23195;47.744;7.358;2023-04-23T16:24:06;18.50;90.40
37310;DHT22;23195;47.744;7.358;2023-04-23T16:26:32;18.30;90.80
37310;DHT22;23195;47.744;7.358;2023-04-23T16:28:58;18.20;90.90
37310;DHT22;23195;47.744;7.358;2023-04-23T16:31:29;18.20;91.30
37310;DHT22;23195;47.744;7.358;2023-04-23T16:33:58;18.20;91.20
37310;DHT22;23195;47.744;7.358;2023-04-23T16:36:24;18.10;91.50
37310;DHT22;23195;47.744;7.358;2023-04-23T16:39:00;18.10;91.90
37310;DHT22;23195;47.744;7.358;2023-04-23T16:41:26;18.10;91.80
37310;DHT22;23195;47.744;7.358;2023-04-23T16:43:52;18.30;92.00
37310;DHT22;23195;47.744;7.358;2023-04-23T16:46:20;18.20;91.90
37310;DHT22;23195;47.744;7.358;2023-04-23T16:48:46;18.10;92.00
37310;DHT22;23195;47.744;7.358;2023-04-23T16:51:12;18.00;92.20
37310;DHT22;23195;47.744;7.358;2023-04-23T16:53:38;17.90;92.80
37310;DHT22;23195;47.744;7.358;2023-04-23T16:56:04;17.60;94.40
37310;DHT22;23195;47.744;7.358;2023-04-23T16:58:30;17.10;97.30
37310;DHT22;23195;47.744;7.358;2023-04-23T17:00:56;16.60;99.00
37310;DHT22;23195;47.744;7.358;2023-04-23T17:03:22;16.30;99.80
37310;DHT22;23195;47.744;7.358;2023-04-23T17:06:04;15.90;99.10
37310;DHT22;23195;47.744;7.358;2023-04-23T17:08:33;15.70;99.90
37310;DHT22;23195;47.744;7.358;2023-04-23T17:11:02;15.50;99.90
37310;DHT22;23195;47.744;7.358;2023-04-23T17:13:31;15.30;99.90
37310;DHT22;23195;47.744;7.358;2023-04-23T17:15:57;15.00;99.90
37310;DHT22;23195;47.744;7.358;2023-04-23T17:18:23;14.80;99.90
37310;DHT22;23195;47.744;7.358;2023-04-23T17:20:49;14.70;99.90
37310;DHT22;23195;47.744;7.358;2023-04-23T17:23:15;14.50;99.90
37310;DHT22;23195;47.744;7.358;2023-04-23T17:25:41;14.40;99.90
37310;DHT22;23195;47.744;7.358;2023-04-23T17:28:06;14.30;99.90
37310;DHT22;23195;47.744;7.358;2023-04-23T17:30:32;14.10;99.90
37310;DHT22;23195;47.744;7.358;2023-04-23T17:32:58;14.00;99.90
37310;DHT22;23195;47.744;7.358;2023-04-23T17:35:25;14.00;99.90
37310;DHT22;23195;47.744;7.358;2023-04-23T17:37:54;13.90;99.90
37310;DHT22;23195;47.744;7.358;2023-04-23T17:40:20;13.80;99.90
37310;DHT22;23195;47.744;7.358;2023-04-23T17:42:45;13.70;99.90
37310;DHT22;23195;47.744;7.358;2023-04-23T17:45:11;13.70;99.90
37310;DHT22;23195;47.744;7.358;2023-04-23T17:47:37;13.60;99.90
37310;DHT22;23195;47.744;7.358;2023-04-23T17:50:08;13.70;99.90
37310;DHT22;23195;47.744;7.358;2023-04-23T17:52:37;13.70;99.90
37310;DHT22;23195;47.744;7.358;2023-04-23T17:55:05;13.50;99.90
37310;DHT22;23195;47.744;7.358;2023-04-23T17:57:35;13.50;99.90
37310;DHT22;23195;47.744;7.358;2023-04-23T18:00:01;13.50;99.90
37310;DHT22;23195;47.744;7.358;2023-04-23T18:02:35;13.50;99.90
37310;DHT22;23195;47.744;7.358;2023-04-23T18:05:15;13.40;99.90
37310;DHT22;23195;47.744;7.358;2023-04-23T18:07:43;13.40;99.90
37310;DHT22;23195;47.744;7.358;2023-04-23T18:10:10;13.40;99.90
37310;DHT22;23195;47.744;7.358;2023-04-23T18:12:37;13.40;99.90
37310;DHT22;23195;47.744;7.358;2023-04-23T18:15:03;13.40;99.90
37310;DHT22;23195;47.744;7.358;2023-04-23T18:17:29;13.50;99.90
37310;DHT22;23195;47.744;7.358;2023-04-23T18:19:55;13.40;99.90
37310;DHT22;23195;47.744;7.358;2023-04-23T18:22:21;13.40;99.90
37310;DHT22;23195;47.744;7.358;2023-04-23T18:24:47;13.40;99.90
37310;DHT22;23195;47.744;7.358;2023-04-23T18:27:15;13.30;99.90
37310;DHT22;23195;47.744;7.358;2023-04-23T18:29:41;13.30;99.90
37310;DHT22;23195;47.744;7.358;2023-04-23T18:32:06;13.30;99.90
37310;DHT22;23195;47.744;7.358;2023-04-23T18:34:37;13.20;99.90
37310;DHT22;23195;47.744;7.358;2023-04-23T18:37:08;13.20;99.90
37310;DHT22;23195;47.744;7.358;2023-04-23T18:39:35;13.20;99.90
37310;DHT22;23195;47.744;7.358;2023-04-23T18:42:04;13.20;99.90
37310;DHT22;23195;47.744;7.358;2023-04-23T18:44:30;13.10;99.90
37310;DHT22;23195;47.744;7.358;2023-04-23T18:46:57;13.00;99.90
37310;DHT22;23195;47.744;7.358;2023-04-23T18:51:54;12.80;99.90
37310;DHT22;23195;47.744;7.358;2023-04-23T18:54:20;12.80;99.90
37310;DHT22;23195;47.744;7.358;2023-04-23T18:56:46;12.70;99.90
37310;DHT22;23195;47.744;7.358;2023-04-23T18:59:12;12.70;99.90
37310;DHT22;23195;47.744;7.358;2023-04-23T19:01:41;12.00;99.90
37310;DHT22;23195;47.744;7.358;2023-04-23T19:04:27;12.60;99.90
37310;DHT22;23195;47.744;7.358;2023-04-23T19:06:55;12.50;99.90
37310;DHT22;23195;47.744;7.358;2023-04-23T19:09:24;12.40;99.90
37310;DHT22;23195;47.744;7.358;2023-04-23T19:11:51;12.40;99.90
37310;DHT22;23195;47.744;7.358;2023-04-23T19:14:25;12.40;99.90
37310;DHT22;23195;47.744;7.358;2023-04-23T19:16:51;12.40;99.90
37310;DHT22;23195;47.744;7.358;2023-04-23T19:19:18;12.40;99.90
37310;DHT22;23195;47.744;7.358;2023-04-23T19:21:46;12.30;99.90
37310;DHT22;23195;47.744;7.358;2023-04-23T19:24:12;12.30;99.90
37310;DHT22;23195;47.744;7.358;2023-04-23T19:26:38;12.40;99.90
37310;DHT22;23195;47.744;7.358;2023-04-23T19:29:09;12.30;99.90
37310;DHT22;23195;47.744;7.358;2023-04-23T19:31:35;12.30;99.90
37310;DHT22;23195;47.744;7.358;2023-04-23T19:34:01;12.30;99.90
37310;DHT22;23195;47.744;7.358;2023-04-23T19:36:26;12.30;99.90
37310;DHT22;23195;47.744;7.358;2023-04-23T19:38:53;12.20;99.90
37310;DHT22;23195;47.744;7.358;2023-04-23T19:41:28;12.20;99.90
37310;DHT22;23195;47.744;7.358;2023-04-23T19:43:53;12.10;99.90
37310;DHT22;23195;47.744;7.358;2023-04-23T19:46:19;12.20;99.90
37310;DHT22;23195;47.744;7.358;2023-04-23T19:48:45;12.20;99.90
37310;DHT22;23195;47.744;7.358;2023-04-23T19:51:11;12.20;99.90
37310;DHT22;23195;47.744;7.358;2023-04-23T19:53:37;12.10;99.90
37310;DHT22;23195;47.744;7.358;2023-04-23T19:56:03;12.20;99.90
37310;DHT22;23195;47.744;7.358;2023-04-23T19:58:28;12.20;99.90
37310;DHT22;23195;47.744;7.358;2023-04-23T20:00:54;12.20;99.90
37310;DHT22;23195;47.744;7.358;2023-04-23T20:03:21;12.30;99.90
37310;DHT22;23195;47.744;7.358;2023-04-23T20:05:46;12.20;99.90
37310;DHT22;23195;47.744;7.358;2023-04-23T20:08:22;12.20;99.90
37310;DHT22;23195;47.744;7.358;2023-04-23T20:10:57;11.80;99.90
37310;DHT22;23195;47.744;7.358;2023-04-23T20:20:22;11.90;99.90
37310;DHT22;23195;47.744;7.358;2023-04-23T20:47:55;11.80;99.90
37310;DHT22;23195;47.744;7.358;2023-04-23T20:50:22;11.80;99.90
37310;DHT22;23195;47.744;7.358;2023-04-23T20:52:48;11.00;99.90
37310;DHT22;23195;47.744;7.358;2023-04-23T20:55:16;11.70;99.90
37310;DHT22;23195;47.744;7.358;2023-04-23T20:57:42;11.70;99.90
37310;DHT22;23195;47.744;7.358;2023-04-23T21:00:08;11.80;99.90
37310;DHT22;23195;47.744;7.358;2023-04-23T21:02:37;11.80;99.90
37310;DHT22;23195;47.744;7.358;2023-04-23T21:05:06;11.80;99.90
37310;DHT22;23195;47.744;7.358;2023-04-23T21:07:33;11.80;99.90
37310;DHT22;23195;47.744;7.358;2023-04-23T21:10:02;11.80;99.90
37310;DHT22;23195;47.744;7.358;2023-04-23T21:12:28;11.80;99.90
37310;DHT22;23195;47.744;7.358;2023-04-23T21:15:00;11.80;99.90
37310;DHT22;23195;47.744;7.358;2023-04-23T21:17:26;11.80;99.90
37310;DHT22;23195;47.744;7.358;2023-04-23T21:19:55;11.80;99.90
37310;DHT22;23195;47.744;7.358;2023-04-23T21:22:31;11.90;99.90
37310;DHT22;23195;47.744;7.358;2023-04-23T21:24:59;11.80;99.90
37310;DHT22;23195;47.744;7.358;2023-04-23T21:27:25;11.80;99.90
37310;DHT22;23195;47.744;7.358;2023-04-23T21:30:04;11.80;99.90
37310;DHT22;23195;47.744;7.358;2023-04-23T21:35:28;11.70;99.90
37310;DHT22;23195;47.744;7.358;2023-04-23T21:37:54;11.70;99.90
37310;DHT22;23195;47.744;7.358;2023-04-23T21:40:20;11.60;99.90
37310;DHT22;23195;47.744;7.358;2023-04-23T21:43:16;11.60;99.90
37310;DHT22;23195;47.744;7.358;2023-04-23T21:45:44;11.50;99.90
37310;DHT22;23195;47.744;7.358;2023-04-23T21:48:25;11.40;99.90
37310;DHT22;23195;47.744;7.358;2023-04-23T21:50:51;11.40;99.90
37310;DHT22;23195;47.744;7.358;2023-04-23T21:53:18;11.30;99.90
37310;DHT22;23195;47.744;7.358;2023-04-23T21:55:51;11.30;99.90
37310;DHT22;23195;47.744;7.358;2023-04-23T21:58:17;11.30;99.90
37310;DHT22;23195;47.744;7.358;2023-04-23T22:00:43;11.20;99.90
37310;DHT22;23195;47.744;7.358;2023-04-23T22:03:09;11.20;99.90
37310;DHT22;23195;47.744;7.358;2023-04-23T22:05:35;11.20;99.90
37310;DHT22;23195;47.744;7.358;2023-04-23T22:08:01;11.20;99.90
37310;DHT22;23195;47.744;7.358;2023-04-23T22:10:27;11.20;99.90
37310;DHT22;23195;47.744;7.358;2023-04-23T22:12:53;11.20;99.90
37310;DHT22;23195;47.744;7.358;2023-04-23T22:15:19;11.10;99.90
37310;DHT22;23195;47.744;7.358;2023-04-23T22:17:48;11.20;99.90
37310;DHT22;23195;47.744;7.358;2023-04-23T22:20:19;11.20;99.90
37310;DHT22;23195;47.744;7.358;2023-04-23T22:22:53;11.30;99.90
37310;DHT22;23195;47.744;7.358;2023-04-23T22:25:19;11.30;99.90
37310;DHT22;23195;47.744;7.358;2023-04-23T22:27:48;11.30;99.90
37310;DHT22;23195;47.744;7.358;2023-04-23T22:30:14;11.30;99.90